Terminal Aerodrome Forecast
Issued by NWS

Home | Current Version | Previous Version | Text Only | Print | Product List | Glossary On
Versions: 1 2 3 4 5 6 7 8 9 10 11 12 13 14 15 16 17 18 19
000
FTUS42 KMHX 192300
TAFISO
TAF
KISO 192320Z 2000/2024 02010G15KT 5SM BR VCSH SCT010 BKN030
      TEMPO 2000/2004 OVC010
     FM200700 04010G15KT 5SM BR VCSH OVC010
     FM201400 05012G17KT P6SM OVC030
      AMD LTD TO CLD VIS AND WIND=

USA.gov is the U.S. government's official web portal to all federal, state and local government web resources and services.